createdAt,value
2018-10-11T00:01:10.603Z,95.70
2018-10-11T00:05:18.719Z,95.90
2018-10-11T00:09:26.823Z,96.40
2018-10-11T00:13:34.943Z,96.40
2018-10-11T00:17:43.063Z,96.30
2018-10-11T00:21:51.179Z,96.40
2018-10-11T00:25:59.296Z,96.70
2018-10-11T00:30:07.496Z,97.30
2018-10-11T00:34:15.603Z,97.10
2018-10-11T00:38:23.829Z,97.10
2018-10-11T00:42:31.923Z,97.50
2018-10-11T00:46:40.071Z,97.80
2018-10-11T00:50:48.192Z,97.80
2018-10-11T00:54:56.464Z,97.90
2018-10-11T00:59:04.579Z,97.90
2018-10-11T01:03:12.691Z,98.10
2018-10-11T01:07:20.795Z,97.90
2018-10-11T01:11:28.915Z,97.60
2018-10-11T01:15:37.028Z,98.30
2018-10-11T01:19:45.155Z,97.90
2018-10-11T01:23:53.327Z,97.80
2018-10-11T01:28:01.397Z,97.80
2018-10-11T01:32:09.500Z,97.90
2018-10-11T01:36:17.611Z,98.00
2018-10-11T01:40:26.036Z,98.10
2018-10-11T01:44:34.153Z,98.60
2018-10-11T01:48:42.255Z,98.60
2018-10-11T01:52:50.468Z,98.60
2018-10-11T01:56:58.571Z,98.70
2018-10-11T02:01:06.795Z,98.40
2018-10-11T02:05:14.916Z,98.00
2018-10-11T02:09:23.072Z,98.10
2018-10-11T02:13:31.142Z,98.30
2018-10-11T02:17:39.551Z,98.20
2018-10-11T02:21:47.679Z,98.20
2018-10-11T02:25:55.818Z,97.90
2018-10-11T02:30:03.920Z,97.90
2018-10-11T02:34:12.091Z,98.20
2018-10-11T02:38:20.208Z,98.50
2018-10-11T02:42:28.350Z,98.60
2018-10-11T02:46:36.467Z,98.80
2018-10-11T02:50:44.576Z,98.50
2018-10-11T02:54:52.692Z,98.40
2018-10-11T02:59:12.319Z,98.80
2018-10-11T03:03:24.028Z,99.30
2018-10-11T03:11:40.052Z,98.90
2018-10-11T03:15:48.163Z,98.90
2018-10-11T03:19:56.278Z,99.20
2018-10-11T03:24:04.375Z,99.00
2018-10-11T03:28:14.199Z,98.90
2018-10-11T03:32:22.319Z,98.80
2018-10-11T03:36:31.031Z,98.80
2018-10-11T03:40:39.132Z,99.00
2018-10-11T03:44:47.235Z,99.00
2018-10-11T03:48:55.352Z,99.10
2018-10-11T03:53:03.495Z,98.90
2018-10-11T03:57:11.615Z,98.20
2018-10-11T04:01:19.727Z,97.90
2018-10-11T04:05:27.852Z,97.60
2018-10-11T04:09:35.968Z,97.60
2018-10-11T04:13:44.500Z,97.60
2018-10-11T04:17:52.611Z,97.50
2018-10-11T04:22:00.736Z,97.50
2018-10-11T04:26:08.851Z,97.50
2018-10-11T04:30:16.968Z,97.60
2018-10-11T04:34:25.383Z,97.50
2018-10-11T04:38:33.499Z,97.50
2018-10-11T04:42:41.706Z,97.40
2018-10-11T04:46:49.747Z,97.40
2018-10-11T04:50:57.868Z,97.40
2018-10-11T04:55:06.040Z,97.30
2018-10-11T04:59:14.156Z,97.30
2018-10-11T05:03:22.287Z,97.30
2018-10-11T05:07:30.393Z,97.40
2018-10-11T05:11:39.140Z,97.50
2018-10-11T05:15:47.259Z,97.30
2018-10-11T05:19:55.376Z,97.00
2018-10-11T05:24:03.508Z,96.90
2018-10-11T05:28:11.624Z,97.00
2018-10-11T05:32:19.763Z,96.90
2018-10-11T05:36:27.864Z,96.90
2018-10-11T05:40:36.003Z,96.90
2018-10-11T05:44:44.324Z,96.90
2018-10-11T05:48:52.696Z,96.70
2018-10-11T05:53:00.807Z,96.40
2018-10-11T05:57:08.925Z,96.70
2018-10-11T06:01:17.035Z,96.90
2018-10-11T06:05:25.254Z,97.20
2018-10-11T06:09:33.374Z,97.30
2018-10-11T06:13:41.795Z,97.50
2018-10-11T06:17:49.960Z,97.50
2018-10-11T06:21:58.035Z,97.40
2018-10-11T06:26:06.260Z,97.30
2018-10-11T06:30:14.910Z,97.30
2018-10-11T06:34:22.988Z,97.20
2018-10-11T06:38:31.163Z,97.10
2018-10-11T06:46:47.235Z,97.10
2018-10-11T06:50:55.444Z,97.10
2018-10-11T06:55:03.588Z,97.10
2018-10-11T06:59:11.704Z,97.10
2018-10-11T07:03:19.814Z,96.90
2018-10-11T07:07:27.941Z,96.40
2018-10-11T07:11:36.060Z,95.80
2018-10-11T07:15:44.172Z,95.60
2018-10-11T07:19:52.306Z,94.90
2018-10-11T07:24:00.421Z,94.80
2018-10-11T07:28:08.548Z,94.10
2018-10-11T07:32:16.664Z,93.80
2018-10-11T07:36:24.779Z,93.80
2018-10-11T07:44:41.660Z,93.10
2018-10-11T07:48:49.775Z,92.70
2018-10-11T07:52:57.909Z,92.00
2018-10-11T07:57:06.123Z,91.50
2018-10-11T08:01:14.296Z,91.00
2018-10-11T08:05:22.723Z,90.50
2018-10-11T08:09:30.840Z,89.50
2018-10-11T08:13:39.114Z,88.00
2018-10-11T08:17:47.421Z,87.20
2018-10-11T08:21:55.212Z,86.70
2018-10-11T08:26:03.811Z,84.50
2018-10-11T08:30:11.467Z,83.80
2018-10-11T08:34:19.569Z,82.90
2018-10-11T08:38:27.751Z,81.90
2018-10-11T08:42:35.803Z,80.50
2018-10-11T08:46:43.915Z,79.70
2018-10-11T08:50:52.591Z,79.60
2018-10-11T08:55:00.673Z,78.40
2018-10-11T08:59:08.804Z,77.70
2018-10-11T09:03:17.104Z,77.20
2018-10-11T09:07:25.155Z,78.10
2018-10-11T09:11:33.307Z,78.60
2018-10-11T09:15:41.619Z,78.70
2018-10-11T09:19:49.648Z,78.90
2018-10-11T09:23:57.763Z,77.40
2018-10-11T09:28:05.972Z,75.10
2018-10-11T09:32:14.091Z,70.80
2018-10-11T09:36:22.246Z,67.20
2018-10-11T09:40:30.317Z,64.00
2018-10-11T09:44:38.421Z,62.90
2018-10-11T09:48:46.585Z,61.00
2018-10-11T09:52:54.668Z,59.90
2018-10-11T09:57:23.407Z,59.20
2018-10-11T10:01:36.982Z,58.00
2018-10-11T10:05:45.094Z,57.40
2018-10-11T10:09:53.276Z,57.00
2018-10-11T10:14:01.334Z,56.10
2018-10-11T10:18:09.455Z,56.60
2018-10-11T10:22:17.572Z,56.30
2018-10-11T10:26:25.704Z,55.90
2018-10-11T10:30:39.154Z,55.70
2018-10-11T10:34:47.280Z,55.50
2018-10-11T10:38:55.406Z,55.40
2018-10-11T10:43:03.508Z,55.30
2018-10-11T10:47:11.642Z,55.50
2018-10-11T10:51:19.784Z,55.70
2018-10-11T10:55:27.975Z,55.80
2018-10-11T10:59:36.104Z,55.70
2018-10-11T11:03:50.951Z,55.90
2018-10-11T11:07:59.140Z,56.00
2018-10-11T11:12:07.264Z,55.60
2018-10-11T11:16:15.396Z,55.30
2018-10-11T11:20:23.528Z,55.00
2018-10-11T11:24:31.652Z,54.60
2018-10-11T11:28:39.792Z,53.70
2018-10-11T11:32:47.953Z,52.90
2018-10-11T11:36:56.088Z,52.70
2018-10-11T11:41:04.220Z,52.80
2018-10-11T11:45:12.362Z,52.80
2018-10-11T11:49:20.504Z,52.60
2018-10-11T11:53:28.627Z,52.60
2018-10-11T11:57:36.744Z,52.50
2018-10-11T12:01:44.872Z,52.30
2018-10-11T12:05:53.000Z,52.20
2018-10-11T12:10:01.128Z,51.50
2018-10-11T12:14:09.487Z,51.00
2018-10-11T12:18:17.607Z,49.30
2018-10-11T12:22:25.737Z,48.30
2018-10-11T12:26:33.868Z,47.30
2018-10-11T12:30:42.001Z,46.60
2018-10-11T12:34:50.108Z,45.90
2018-10-11T12:38:58.244Z,46.30
2018-10-11T12:43:06.364Z,45.40
2018-10-11T12:47:14.499Z,45.80
2018-10-11T12:51:22.681Z,46.00
2018-10-11T12:55:30.813Z,46.00
2018-10-11T12:59:38.941Z,45.90
2018-10-11T13:03:47.080Z,45.90
2018-10-11T13:07:55.200Z,46.10
2018-10-11T13:12:03.664Z,46.60
2018-10-11T13:16:11.803Z,47.10
2018-10-11T13:20:19.972Z,46.60
2018-10-11T13:24:28.132Z,45.40
2018-10-11T13:28:36.288Z,45.90
2018-10-11T13:32:44.440Z,46.50
2018-10-11T13:36:52.595Z,46.90
2018-10-11T13:41:03.080Z,47.30
2018-10-11T13:45:08.911Z,47.30
2018-10-11T13:49:17.080Z,47.20
2018-10-11T13:53:25.256Z,47.50
2018-10-11T13:57:33.421Z,48.30
2018-10-11T14:01:41.620Z,48.60
2018-10-11T14:05:49.801Z,48.50
2018-10-11T14:09:57.950Z,49.40
2018-10-11T14:14:06.128Z,49.00
2018-10-11T14:18:14.648Z,48.90
2018-10-11T14:22:22.783Z,48.60
2018-10-11T14:26:30.904Z,47.90
2018-10-11T14:30:39.026Z,47.20
2018-10-11T14:34:47.159Z,46.60
2018-10-11T14:38:55.288Z,45.80
2018-10-11T14:43:03.425Z,44.50
2018-10-11T14:47:11.571Z,43.50
2018-10-11T14:51:19.734Z,43.70
2018-10-11T14:55:27.839Z,44.00
2018-10-11T14:59:36.272Z,44.40
2018-10-11T15:03:44.336Z,44.60
2018-10-11T15:07:52.473Z,44.60
2018-10-11T15:12:00.612Z,44.80
2018-10-11T15:20:16.777Z,45.80
2018-10-11T15:24:24.919Z,46.20
2018-10-11T15:28:33.075Z,46.60
2018-10-11T15:32:41.229Z,47.00
2018-10-11T15:36:49.387Z,47.50
2018-10-11T15:40:57.544Z,48.10
2018-10-11T15:45:07.001Z,48.60
2018-10-11T15:49:15.144Z,49.00
2018-10-11T15:53:23.305Z,49.30
2018-10-11T15:57:31.521Z,49.60
2018-10-11T16:01:39.660Z,50.00
2018-10-11T16:05:48.094Z,50.30
2018-10-11T16:09:55.991Z,50.60
2018-10-11T16:14:04.184Z,51.00
2018-10-11T16:18:12.351Z,51.30
2018-10-11T16:22:20.572Z,51.90
2018-10-11T16:26:28.804Z,52.20
2018-10-11T16:30:37.221Z,52.60
2018-10-11T16:34:45.388Z,53.10
2018-10-11T16:38:53.552Z,53.60
2018-10-11T16:43:01.856Z,54.20
2018-10-11T16:47:10.020Z,54.70
2018-10-11T16:51:18.211Z,55.50
2018-10-11T16:55:26.377Z,56.00
2018-10-11T16:59:34.541Z,56.50
2018-10-11T17:03:42.700Z,57.20
2018-10-11T17:07:50.881Z,58.00
2018-10-11T17:11:59.058Z,58.70
2018-10-11T17:16:07.220Z,59.50
2018-10-11T17:20:15.380Z,60.40
2018-10-11T17:24:23.548Z,61.20
2018-10-11T17:28:31.713Z,62.20
2018-10-11T17:32:39.882Z,63.50
2018-10-11T17:36:48.052Z,64.50
2018-10-11T17:40:56.214Z,65.60
2018-10-11T17:45:04.397Z,66.50
2018-10-11T17:49:12.569Z,67.50
2018-10-11T17:53:20.748Z,68.30
2018-10-11T17:57:28.911Z,69.00
2018-10-11T18:01:37.083Z,69.80
2018-10-11T18:05:45.239Z,70.40
2018-10-11T18:09:53.414Z,71.20
2018-10-11T18:14:01.584Z,72.20
2018-10-11T18:18:09.750Z,73.30
2018-10-11T18:22:17.921Z,73.90
2018-10-11T18:26:26.182Z,74.80
2018-10-11T18:30:34.383Z,76.60
2018-10-11T18:34:42.614Z,76.20
2018-10-11T18:38:50.777Z,76.80
2018-10-11T18:42:58.987Z,77.50
2018-10-11T18:47:07.339Z,78.20
2018-10-11T18:51:15.537Z,78.90
2018-10-11T18:55:23.697Z,79.60
2018-10-11T18:59:31.868Z,80.30
2018-10-11T19:03:40.051Z,80.90
2018-10-11T19:07:48.216Z,81.50
2018-10-11T19:11:56.443Z,82.20
2018-10-11T19:16:04.602Z,82.80
2018-10-11T19:20:12.773Z,83.70
2018-10-11T19:24:20.904Z,84.40
2018-10-11T19:28:29.057Z,84.90
2018-10-11T19:32:37.231Z,85.40
2018-10-11T19:36:45.418Z,85.90
2018-10-11T19:40:53.624Z,86.70
2018-10-11T19:45:01.769Z,87.00
2018-10-11T19:49:09.953Z,87.60
2018-10-11T19:53:18.111Z,88.30
2018-10-11T19:57:26.252Z,88.90
2018-10-11T20:01:34.416Z,89.30
2018-10-11T20:05:42.651Z,89.80
2018-10-11T20:09:50.800Z,90.00
2018-10-11T20:13:58.956Z,90.20
2018-10-11T20:18:07.097Z,90.40
2018-10-11T20:22:15.322Z,90.50
2018-10-11T20:26:23.512Z,90.50
2018-10-11T20:30:31.693Z,90.70
2018-10-11T20:34:39.999Z,91.30
2018-10-11T20:38:48.279Z,91.10
2018-10-11T20:42:56.428Z,91.40
2018-10-11T20:47:04.617Z,91.60
2018-10-11T20:51:12.837Z,91.80
2018-10-11T20:55:21.068Z,91.80
2018-10-11T20:59:29.260Z,91.80
2018-10-11T21:03:37.456Z,91.90
2018-10-11T21:07:45.695Z,91.90
2018-10-11T21:11:53.969Z,92.10
2018-10-11T21:16:02.128Z,92.10
2018-10-11T21:20:11.504Z,92.30
2018-10-11T21:24:19.755Z,92.50
2018-10-11T21:28:27.920Z,92.80
2018-10-11T21:32:36.120Z,92.80
2018-10-11T21:36:44.292Z,92.90
2018-10-11T21:40:52.447Z,93.10
2018-10-11T21:45:00.636Z,93.30
2018-10-11T21:49:08.811Z,93.30
2018-10-11T21:53:16.959Z,93.50
2018-10-11T21:57:25.112Z,93.60
2018-10-11T22:01:33.347Z,93.70
2018-10-11T22:05:41.732Z,93.50
2018-10-11T22:09:49.891Z,93.50
2018-10-11T22:13:58.055Z,93.60
2018-10-11T22:18:06.216Z,93.70
2018-10-11T22:22:14.352Z,93.70
2018-10-11T22:26:22.488Z,93.90
2018-10-11T22:30:30.611Z,94.30
2018-10-11T22:34:38.743Z,94.10
2018-10-11T22:38:46.863Z,94.10
2018-10-11T22:42:55.349Z,94.20
2018-10-11T22:47:03.478Z,94.50
2018-10-11T22:51:12.047Z,94.60
2018-10-11T22:55:20.172Z,94.50
2018-10-11T22:59:28.302Z,94.50
2018-10-11T23:03:36.432Z,94.50
2018-10-11T23:07:44.548Z,94.80
2018-10-11T23:11:52.670Z,94.80
2018-10-11T23:16:00.796Z,95.10
2018-10-11T23:20:09.550Z,95.10
2018-10-11T23:24:17.702Z,94.80
2018-10-11T23:28:25.858Z,94.70
2018-10-11T23:32:34.027Z,94.60
2018-10-11T23:36:42.195Z,94.80
2018-10-11T23:40:50.348Z,95.20
2018-10-11T23:44:58.491Z,94.90
2018-10-11T23:49:06.655Z,94.60
2018-10-11T23:53:14.807Z,94.50
2018-10-11T23:57:22.960Z,94.70
